createdAt,value
2022-11-05T00:01:12.367Z,99968.38
2022-11-05T00:04:03.497Z,99972.66
2022-11-05T00:07:01.978Z,99971.84
2022-11-05T00:12:50.255Z,99965.84
2022-11-05T00:15:49.624Z,99966.69
2022-11-05T00:18:32.926Z,99970.19
2022-11-05T00:21:27.082Z,99972.81
2022-11-05T00:24:34.781Z,99965.16
2022-11-05T00:27:34.748Z,99966.94
2022-11-05T00:36:09.025Z,99973.28
2022-11-05T00:39:03.013Z,99957.78
2022-11-05T00:42:09.347Z,99960.25
2022-11-05T00:45:01.285Z,99963.69
2022-11-05T00:48:00.645Z,99966.28
2022-11-05T00:54:11.382Z,99971.50
2022-11-05T00:56:49.427Z,99955.09
2022-11-05T00:59:35.596Z,99960.31
2022-11-05T01:02:13.813Z,99963.03
2022-11-05T01:05:05.605Z,99962.28
2022-11-05T01:08:02.571Z,99922.59
2022-11-05T01:10:40.138Z,99957.25
2022-11-05T01:13:20.178Z,99952.97
2022-11-05T01:16:12.764Z,99962.47
2022-11-05T01:19:33.771Z,99946.91
2022-11-05T01:22:11.802Z,99853.63
2022-11-05T01:25:04.716Z,99941.84
2022-11-05T01:27:44.631Z,99949.66
2022-11-05T01:30:20.598Z,99948.84
2022-11-05T01:33:00.445Z,99950.63
2022-11-05T01:35:38.339Z,99928.13
2022-11-05T01:38:23.575Z,99942.00
2022-11-05T01:41:20.175Z,99946.38
2022-11-05T01:44:15.187Z,99933.44
2022-11-05T01:47:08.278Z,99941.16
2022-11-05T01:50:15.289Z,99932.47
2022-11-05T01:52:58.282Z,99936.78
2022-11-05T01:55:47.840Z,99894.34
2022-11-05T01:58:48.012Z,99938.47
2022-11-05T02:01:28.601Z,99922.16
2022-11-05T02:04:27.648Z,99871.31
2022-11-05T02:07:17.411Z,99913.59
2022-11-05T02:10:33.465Z,99890.31
2022-11-05T02:16:51.545Z,99890.31
2022-11-05T02:20:02.822Z,99879.91
2022-11-05T02:23:13.509Z,99882.53
2022-11-05T02:26:41.706Z,99874.75
2022-11-05T02:33:04.081Z,99869.56
2022-11-05T02:36:09.015Z,99873.00
2022-11-05T02:38:59.664Z,99861.81
2022-11-05T02:41:47.619Z,99848.00
2022-11-05T02:44:42.276Z,99854.06
2022-11-05T02:47:36.118Z,99753.09
2022-11-05T02:53:43.554Z,99857.44
2022-11-05T02:56:32.071Z,99862.59
2022-11-05T02:59:16.190Z,99871.25
2022-11-05T03:02:08.604Z,99847.06
2022-11-05T03:04:54.105Z,99853.06
2022-11-05T03:07:43.439Z,99850.56
2022-11-05T03:11:03.062Z,99861.81
2022-11-05T03:13:48.068Z,99832.47
2022-11-05T03:19:35.533Z,99856.63
2022-11-05T03:25:19.291Z,99844.53
2022-11-05T03:28:07.497Z,99852.31
2022-11-05T03:34:18.445Z,99836.72
2022-11-05T03:37:07.288Z,99838.41
2022-11-05T03:39:52.881Z,99836.69
2022-11-05T03:42:47.528Z,99827.25
2022-11-05T03:45:42.783Z,99823.81
2022-11-05T03:48:27.972Z,99823.81
2022-11-05T03:51:24.228Z,99807.44
2022-11-05T03:54:05.210Z,99800.53
2022-11-05T03:56:56.716Z,99822.94
2022-11-05T04:00:08.414Z,99810.00
2022-11-05T04:02:54.050Z,99812.56
2022-11-05T04:05:42.466Z,99807.44
2022-11-05T04:08:41.644Z,99806.56
2022-11-05T04:11:42.891Z,99811.75
2022-11-05T04:14:34.688Z,99804.84
2022-11-05T04:17:13.024Z,99817.72
2022-11-05T04:20:11.929Z,99814.31
2022-11-05T04:23:18.595Z,99803.09
2022-11-05T04:26:11.501Z,99808.25
2022-11-05T04:32:22.253Z,99807.34
2022-11-05T04:35:05.571Z,99810.78
2022-11-05T04:37:54.798Z,99814.19
2022-11-05T04:40:40.683Z,99812.44
2022-11-05T04:43:39.996Z,99796.81
2022-11-05T04:46:38.731Z,99803.66
2022-11-05T04:49:22.571Z,99819.09
2022-11-05T04:52:23.325Z,99824.25
2022-11-05T05:01:05.842Z,99819.28
2022-11-05T05:03:53.402Z,99833.88
2022-11-05T05:06:33.704Z,99820.94
2022-11-05T05:09:18.223Z,99822.72
2022-11-05T05:12:04.653Z,99824.47
2022-11-05T05:14:59.259Z,99823.59
2022-11-05T05:17:50.540Z,99826.22
2022-11-05T05:20:49.744Z,99825.38
2022-11-05T05:23:48.246Z,99817.59
2022-11-05T05:26:48.126Z,99840.00
2022-11-05T05:29:43.919Z,99841.69
2022-11-05T05:32:35.288Z,99843.44
2022-11-05T05:35:15.427Z,99840.88
2022-11-05T05:37:56.160Z,99846.91
2022-11-05T05:40:39.919Z,99845.22
2022-11-05T05:43:43.495Z,99843.53
2022-11-05T05:46:37.734Z,99852.13
2022-11-05T05:52:14.688Z,99865.88
2022-11-05T05:54:56.906Z,99860.66
2022-11-05T05:57:36.733Z,99864.09
2022-11-05T06:00:38.793Z,99861.47
2022-11-05T06:03:19.495Z,99858.91
2022-11-05T06:06:10.835Z,99853.72
2022-11-05T06:08:49.403Z,99862.28
2022-11-05T06:11:36.048Z,99859.56
2022-11-05T06:14:38.559Z,99872.50
2022-11-05T06:17:33.083Z,99886.22
2022-11-05T06:20:12.917Z,99886.16
2022-11-05T06:22:45.581Z,99884.41
2022-11-05T06:25:41.054Z,99888.66
2022-11-05T06:28:22.087Z,99884.25
2022-11-05T06:31:00.631Z,99897.13
2022-11-05T06:33:51.755Z,99896.22
2022-11-05T06:36:39.158Z,99901.28
2022-11-05T06:39:22.670Z,99897.81
2022-11-05T06:42:24.137Z,99902.88
2022-11-05T06:45:17.599Z,99899.38
2022-11-05T06:48:03.530Z,99901.00
2022-11-05T06:50:42.101Z,99893.97
2022-11-05T06:56:30.599Z,99893.91
2022-11-05T06:59:07.746Z,99884.41
2022-11-05T07:01:56.369Z,99892.16
2022-11-05T07:04:40.758Z,99889.56
2022-11-05T07:07:25.457Z,99890.34
2022-11-05T07:10:11.100Z,99888.63
2022-11-05T07:13:03.745Z,99885.13
2022-11-05T07:15:57.102Z,99897.16
2022-11-05T07:18:59.711Z,99900.56
2022-11-05T07:21:39.865Z,99903.91
2022-11-05T07:24:17.961Z,99893.50
2022-11-05T07:26:56.234Z,99898.56
2022-11-05T07:29:40.017Z,99905.41
2022-11-05T07:32:26.541Z,99891.69
2022-11-05T07:35:10.963Z,99908.78
2022-11-05T07:38:18.166Z,99907.06
2022-11-05T07:41:10.581Z,99915.69
2022-11-05T07:43:45.613Z,99910.53
2022-11-05T07:46:31.952Z,99906.28
2022-11-05T07:49:20.762Z,99897.56
2022-11-05T07:55:11.181Z,99908.69
2022-11-05T07:58:16.827Z,99913.88
2022-11-05T08:01:04.837Z,99917.28
2022-11-05T08:03:46.407Z,99919.03
2022-11-05T08:06:24.351Z,99919.03
2022-11-05T08:09:07.905Z,99912.97
2022-11-05T08:12:05.995Z,99923.28
2022-11-05T08:14:52.939Z,99865.34
2022-11-05T08:17:36.827Z,99912.13
2022-11-05T08:20:16.368Z,99908.72
2022-11-05T08:23:18.827Z,99906.97
2022-11-05T08:26:05.779Z,99914.75
2022-11-05T08:29:09.362Z,99910.47
2022-11-05T08:31:52.149Z,99867.22
2022-11-05T08:34:33.888Z,99911.41
2022-11-05T08:37:13.746Z,99908.84
2022-11-05T08:39:57.713Z,99910.53
2022-11-05T08:42:50.754Z,99913.16
2022-11-05T08:45:27.999Z,99912.28
2022-11-05T08:48:17.841Z,99910.56
2022-11-05T08:51:01.309Z,99913.16
2022-11-05T08:53:49.662Z,99922.69
2022-11-05T08:56:34.716Z,99917.53
2022-11-05T08:59:29.318Z,99922.66
2022-11-05T09:22:06.479Z,99924.22
2022-11-05T09:24:41.291Z,99917.34
2022-11-05T09:27:28.510Z,99868.78
2022-11-05T09:30:17.743Z,99897.47
2022-11-05T09:33:35.579Z,99924.22
2022-11-05T09:36:32.247Z,99924.22
2022-11-05T09:39:16.732Z,99893.19
2022-11-05T09:42:01.057Z,99910.47
2022-11-05T09:44:59.823Z,99918.25
2022-11-05T09:47:40.079Z,99919.19
2022-11-05T09:53:48.242Z,99920.84
2022-11-05T09:56:32.585Z,99920.00
2022-11-05T09:59:15.197Z,99926.06
2022-11-05T10:01:53.973Z,99929.50
2022-11-05T10:04:41.423Z,99938.06
2022-11-05T10:07:26.587Z,99937.19
2022-11-05T10:10:16.298Z,99933.75
2022-11-05T10:13:01.360Z,99951.94
2022-11-05T10:15:39.205Z,99957.94
2022-11-05T10:18:24.986Z,99962.28
2022-11-05T10:21:03.149Z,99958.72
2022-11-05T10:24:02.284Z,99969.13
2022-11-05T10:26:52.600Z,99946.66
2022-11-05T10:29:57.741Z,99968.31
2022-11-05T10:32:51.030Z,99970.88
2022-11-05T10:35:29.596Z,99970.81
2022-11-05T10:38:05.168Z,99951.81
2022-11-05T10:40:58.426Z,99952.69
2022-11-05T10:43:48.694Z,99958.59
2022-11-05T10:47:06.271Z,99970.44
2022-11-05T10:50:08.013Z,99978.88
2022-11-05T10:55:54.422Z,99949.50
2022-11-05T10:58:33.742Z,99953.00
2022-11-05T11:01:25.196Z,99972.16
2022-11-05T11:04:23.491Z,99966.19
2022-11-05T11:07:02.053Z,99966.91
2022-11-05T11:09:50.038Z,99965.22
2022-11-05T11:12:40.722Z,99963.34
2022-11-05T11:15:28.578Z,99965.06
2022-11-05T11:18:26.778Z,99987.53
2022-11-05T11:21:14.851Z,99992.75
2022-11-05T11:24:15.032Z,99951.88
2022-11-05T11:26:56.232Z,99991.63
2022-11-05T11:29:53.047Z,99982.09
2022-11-05T11:32:36.343Z,99890.25
2022-11-05T11:35:20.736Z,99974.22
2022-11-05T11:38:17.402Z,99867.63
2022-11-05T11:40:57.060Z,99990.69
2022-11-05T11:43:43.980Z,99994.09
2022-11-05T11:46:25.907Z,99998.34
2022-11-05T11:49:01.536Z,99990.69
2022-11-05T11:51:49.742Z,99975.13
2022-11-05T11:54:55.869Z,99994.09
2022-11-05T11:57:37.599Z,99987.22
2022-11-05T12:00:13.807Z,99981.94
2022-11-05T12:03:06.740Z,99994.84
2022-11-05T12:05:54.169Z,100002.44
2022-11-05T12:09:03.533Z,99993.84
2022-11-05T12:12:03.651Z,99986.16
2022-11-05T12:14:46.623Z,99962.69
2022-11-05T12:17:43.442Z,99975.81
2022-11-05T12:20:33.363Z,99972.34
2022-11-05T12:23:20.641Z,99969.69
2022-11-05T12:26:10.487Z,99955.72
2022-11-05T12:29:19.293Z,99975.56
2022-11-05T12:32:09.822Z,99971.31
2022-11-05T12:35:00.236Z,99975.56
2022-11-05T12:37:45.569Z,99976.50
2022-11-05T12:40:58.155Z,99977.28
2022-11-05T12:43:47.642Z,99976.41
2022-11-05T12:46:39.232Z,99904.22
2022-11-05T12:49:42.325Z,99974.66
2022-11-05T12:52:48.210Z,99979.81
2022-11-05T12:55:24.222Z,99974.63
2022-11-05T12:58:09.486Z,99958.97
2022-11-05T13:00:50.560Z,99971.09
2022-11-05T13:03:42.911Z,99972.81
2022-11-05T13:06:22.064Z,99982.31
2022-11-05T13:09:03.951Z,99804.88
2022-11-05T13:12:00.833Z,99966.78
2022-11-05T13:14:39.944Z,99972.59
2022-11-05T13:17:26.288Z,99975.91
2022-11-05T13:20:16.028Z,99962.03
2022-11-05T13:23:16.289Z,99956.81
2022-11-05T13:25:56.954Z,99958.53
2022-11-05T13:28:48.227Z,99949.03
2022-11-05T13:31:39.862Z,99944.75
2022-11-05T13:34:22.936Z,99950.03
2022-11-05T13:37:31.861Z,99956.94
2022-11-05T13:40:19.931Z,99966.41
2022-11-05T13:43:21.410Z,99962.91
2022-11-05T13:46:36.382Z,99971.28
2022-11-05T13:49:40.446Z,99966.91
2022-11-05T13:53:01.536Z,99966.66
2022-11-05T13:56:10.713Z,99971.63
2022-11-05T13:59:29.682Z,99966.31
2022-11-05T14:02:22.654Z,99980.19
2022-11-05T14:05:13.635Z,99989.50
2022-11-05T14:07:53.534Z,99981.72
2022-11-05T14:10:58.647Z,99983.44
2022-11-05T14:13:51.437Z,99988.53
2022-11-05T14:16:41.060Z,99976.66
2022-11-05T14:20:06.494Z,99984.56
2022-11-05T14:22:55.250Z,99965.47
2022-11-05T14:26:05.821Z,99984.31
2022-11-05T14:29:00.287Z,99985.81
2022-11-05T14:32:07.890Z,99996.88
2022-11-05T14:34:58.787Z,99995.94
2022-11-05T14:37:38.695Z,99990.94
2022-11-05T14:40:36.945Z,99999.47
2022-11-05T14:43:27.912Z,99990.06
2022-11-05T14:46:11.256Z,99993.47
2022-11-05T14:48:52.711Z,99998.66
2022-11-05T14:51:48.122Z,99995.28
2022-11-05T14:54:55.362Z,99984.84
2022-11-05T14:58:04.612Z,99972.72
2022-11-05T15:01:11.057Z,99983.88
2022-11-05T15:04:47.125Z,99969.28
2022-11-05T15:07:53.041Z,99982.34
2022-11-05T15:10:39.662Z,99982.34
2022-11-05T15:13:45.607Z,99983.09
2022-11-05T15:16:32.780Z,99996.88
2022-11-05T15:19:14.447Z,99991.59
2022-11-05T15:22:05.626Z,100000.00
2022-11-05T15:24:46.739Z,99992.22
2022-11-05T15:27:27.414Z,99995.75
2022-11-05T15:30:15.819Z,99976.00
2022-11-05T15:32:56.319Z,99969.06
2022-11-05T15:35:42.500Z,99991.59
2022-11-05T15:38:35.957Z,100000.09
2022-11-05T15:41:19.775Z,99992.03
2022-11-05T15:44:01.464Z,100000.69
2022-11-05T15:46:42.674Z,99984.22
2022-11-05T15:49:26.164Z,100001.56
2022-11-05T15:52:15.985Z,100004.13
2022-11-05T15:54:57.651Z,99985.06
2022-11-05T16:00:59.121Z,100018.78
2022-11-05T16:03:45.723Z,100028.16
2022-11-05T16:06:39.220Z,100033.41
2022-11-05T16:12:34.080Z,100016.09
2022-11-05T16:15:38.344Z,100022.09
2022-11-05T16:18:39.479Z,100012.69
2022-11-05T16:21:37.208Z,100025.63
2022-11-05T16:24:41.055Z,100009.44
2022-11-05T16:27:26.408Z,100001.13
2022-11-05T16:30:09.699Z,99993.41
2022-11-05T16:32:48.957Z,99986.66
2022-11-05T16:35:34.559Z,99971.75
2022-11-05T16:38:28.331Z,99962.00
2022-11-05T16:41:22.572Z,99986.41
2022-11-05T16:44:11.476Z,99998.50
2022-11-05T16:46:56.240Z,100002.09
2022-11-05T16:52:48.119Z,100011.59
2022-11-05T16:55:26.042Z,99975.44
2022-11-05T16:58:15.829Z,100015.00
2022-11-05T17:01:01.690Z,100011.50
2022-11-05T17:03:53.050Z,100013.16
2022-11-05T17:07:04.899Z,100016.66
2022-11-05T17:09:49.482Z,100030.31
2022-11-05T17:12:42.919Z,100025.22
2022-11-05T17:15:51.145Z,100027.31
2022-11-05T17:18:25.971Z,100041.69
2022-11-05T17:21:13.018Z,100037.16
2022-11-05T17:23:59.111Z,100039.50
2022-11-05T17:26:45.780Z,100017.88
2022-11-05T17:29:48.592Z,100019.59
2022-11-05T17:32:42.388Z,100012.78
2022-11-05T17:35:21.295Z,100009.03
2022-11-05T17:38:03.921Z,100030.53
2022-11-05T17:40:45.159Z,100021.19
2022-11-05T17:43:39.448Z,100025.56
2022-11-05T17:46:18.723Z,100038.53
2022-11-05T17:49:23.071Z,100031.81
2022-11-05T17:52:07.432Z,100025.00
2022-11-05T17:55:07.764Z,99965.88
2022-11-05T17:57:48.309Z,100031.69
2022-11-05T18:00:28.141Z,100038.47
2022-11-05T18:09:20.107Z,100033.78
2022-11-05T18:11:59.443Z,100003.38
2022-11-05T18:14:52.870Z,100054.59
2022-11-05T18:17:38.832Z,100052.03
2022-11-05T18:20:38.715Z,100041.94
2022-11-05T18:23:47.153Z,100034.06
2022-11-05T18:26:34.106Z,100044.47
2022-11-05T18:29:09.872Z,100052.81
2022-11-05T18:32:00.663Z,100038.09
2022-11-05T18:34:43.906Z,100041.41
2022-11-05T18:37:35.890Z,100036.22
2022-11-05T18:40:33.690Z,100046.41
2022-11-05T18:43:10.965Z,100050.75
2022-11-05T18:45:56.607Z,100029.25
2022-11-05T18:48:38.315Z,100048.13
2022-11-05T18:51:22.860Z,99996.84
2022-11-05T18:54:14.126Z,100027.59
2022-11-05T19:00:05.456Z,100050.25
2022-11-05T19:02:52.036Z,100056.50
2022-11-05T19:05:30.081Z,100057.34
2022-11-05T19:08:07.796Z,100060.81
2022-11-05T19:10:54.174Z,100059.13
2022-11-05T19:13:41.090Z,100065.97
2022-11-05T19:16:28.286Z,100064.38
2022-11-05T19:19:12.841Z,100017.19
2022-11-05T19:22:00.525Z,100074.41
2022-11-05T19:24:46.245Z,100080.56
2022-11-05T19:27:24.324Z,100073.50
2022-11-05T19:30:11.420Z,100068.13
2022-11-05T19:32:53.954Z,100077.94
2022-11-05T19:35:43.011Z,100088.34
2022-11-05T19:38:45.017Z,100093.59
2022-11-05T19:41:39.611Z,100090.34
2022-11-05T19:44:21.692Z,100088.66
2022-11-05T19:47:17.156Z,100098.94
2022-11-05T19:50:02.237Z,100099.84
2022-11-05T19:53:04.248Z,100090.34
2022-11-05T19:55:45.235Z,100100.69
2022-11-05T19:58:19.358Z,100106.91
2022-11-05T20:01:06.629Z,100113.72
2022-11-05T20:04:00.840Z,100112.84
2022-11-05T20:06:40.994Z,100106.69
2022-11-05T20:09:33.260Z,100109.13
2022-11-05T20:12:12.186Z,100109.38
2022-11-05T20:14:52.871Z,100107.91
2022-11-05T20:17:31.190Z,100104.53
2022-11-05T20:20:25.870Z,100121.44
2022-11-05T20:23:10.511Z,100124.03
2022-11-05T20:28:55.831Z,100131.03
2022-11-05T20:31:37.815Z,100139.81
2022-11-05T20:34:15.629Z,100158.69
2022-11-05T20:37:01.023Z,100151.97
2022-11-05T20:39:55.219Z,100142.41
2022-11-05T20:42:40.310Z,100151.09
2022-11-05T20:45:36.258Z,100155.34
2022-11-05T20:48:15.725Z,100153.56
2022-11-05T20:51:08.409Z,100170.63
2022-11-05T20:54:04.364Z,100146.44
2022-11-05T20:56:51.474Z,100159.78
2022-11-05T20:59:53.038Z,100165.69
2022-11-05T21:02:33.509Z,100167.22
2022-11-05T21:05:23.688Z,100183.88
2022-11-05T21:08:17.694Z,100218.69
2022-11-05T21:11:00.111Z,100198.88
2022-11-05T21:14:00.927Z,100153.50
2022-11-05T21:16:46.498Z,100217.50
2022-11-05T21:19:45.313Z,100227.34
2022-11-05T21:22:34.886Z,100239.16
2022-11-05T21:30:57.996Z,100245.19
2022-11-05T21:33:55.000Z,100238.34
2022-11-05T21:36:31.036Z,100259.56
2022-11-05T21:39:13.770Z,100268.81
2022-11-05T21:42:06.430Z,100270.28
2022-11-05T21:44:50.330Z,100276.56
2022-11-05T21:47:35.685Z,100285.72
2022-11-05T21:50:18.246Z,100282.63
2022-11-05T21:53:17.511Z,100292.88
2022-11-05T21:56:07.031Z,100304.78
2022-11-05T21:58:59.171Z,100309.69
2022-11-05T22:01:36.313Z,100314.13
2022-11-05T22:04:29.085Z,100297.59
2022-11-05T22:07:25.279Z,100323.94
2022-11-05T22:10:17.490Z,100314.50
2022-11-05T22:13:12.202Z,100313.75
2022-11-05T22:16:16.101Z,100318.91
2022-11-05T22:18:55.043Z,100319.03
2022-11-05T22:21:46.510Z,100324.34
2022-11-05T22:24:49.553Z,100329.97
2022-11-05T22:27:42.725Z,100332.31
2022-11-05T22:30:28.661Z,100336.59
2022-11-05T22:33:13.006Z,100332.06
2022-11-05T22:36:15.545Z,100328.41
2022-11-05T22:39:09.772Z,100336.31
2022-11-05T22:41:49.072Z,100346.06
2022-11-05T22:44:45.140Z,100344.97
2022-11-05T22:47:21.907Z,100349.53
2022-11-05T22:50:11.093Z,100353.78
2022-11-05T22:56:06.070Z,100364.63
2022-11-05T22:59:01.324Z,100366.72
2022-11-05T23:01:47.027Z,100359.75
2022-11-05T23:04:51.001Z,100361.41
2022-11-05T23:07:44.888Z,100371.94
2022-11-05T23:10:46.141Z,100379.19
2022-11-05T23:13:26.555Z,100380.28
2022-11-05T23:16:25.699Z,100383.00
2022-11-05T23:19:16.744Z,100381.38
2022-11-05T23:22:19.241Z,100387.38
2022-11-05T23:25:13.187Z,100380.16
2022-11-05T23:27:59.236Z,100387.28
2022-11-05T23:31:01.150Z,100381.56
2022-11-05T23:33:46.482Z,100388.69
2022-11-05T23:36:51.602Z,100380.09
2022-11-05T23:39:42.592Z,100397.06
2022-11-05T23:42:40.554Z,100390.69
2022-11-05T23:48:37.270Z,100403.50
2022-11-05T23:54:23.360Z,100374.38
2022-11-05T23:57:06.880Z,100412.66
2022-11-05T23:59:53.295Z,100406.13
